createdAt,value
2019-03-29T00:01:12.913Z,102156.70
2019-03-29T00:03:43.032Z,102154.36
2019-03-29T00:06:12.845Z,102155.77
2019-03-29T00:08:43.475Z,102156.74
2019-03-29T00:11:13.588Z,102156.19
2019-03-29T00:13:43.447Z,102156.52
2019-03-29T00:16:13.214Z,102161.19
2019-03-29T00:18:43.287Z,102159.90
2019-03-29T00:21:13.320Z,102157.45
2019-03-29T00:23:43.059Z,102154.17
2019-03-29T00:26:13.142Z,102156.57
2019-03-29T00:28:42.950Z,102150.09
2019-03-29T00:31:13.251Z,102148.75
2019-03-29T00:33:44.030Z,102145.23
2019-03-29T00:36:13.803Z,102139.58
2019-03-29T00:38:43.777Z,102136.80
2019-03-29T00:41:13.914Z,102135.46
2019-03-29T00:43:43.698Z,102135.34
2019-03-29T00:46:13.543Z,102129.70
2019-03-29T00:48:43.649Z,102136.49
2019-03-29T00:51:13.410Z,102146.53
2019-03-29T00:53:43.199Z,102136.52
2019-03-29T00:56:13.315Z,102136.07
2019-03-29T00:58:43.088Z,102130.28
2019-03-29T01:01:12.881Z,102130.22
2019-03-29T01:03:43.016Z,102134.30
2019-03-29T01:06:13.059Z,102133.20
2019-03-29T01:08:43.292Z,102134.67
2019-03-29T01:11:14.940Z,102129.54
2019-03-29T01:13:44.682Z,102122.61
2019-03-29T01:16:14.495Z,102135.11
2019-03-29T01:18:44.304Z,102133.08
2019-03-29T01:21:14.267Z,102134.31
2019-03-29T01:23:44.301Z,102131.07
2019-03-29T01:26:14.121Z,102120.76
2019-03-29T01:28:43.910Z,102126.33
2019-03-29T01:31:15.030Z,102122.95
2019-03-29T01:33:44.929Z,102121.63
2019-03-29T01:36:15.007Z,102122.02
2019-03-29T01:38:44.763Z,102124.66
2019-03-29T01:41:14.562Z,102121.52
2019-03-29T01:43:44.653Z,102117.62
2019-03-29T01:46:14.443Z,102115.26
2019-03-29T01:48:44.272Z,102113.37
2019-03-29T01:51:14.377Z,102115.20
2019-03-29T01:53:44.184Z,102110.86
2019-03-29T01:56:14.283Z,102115.05
2019-03-29T01:58:44.959Z,102111.52
2019-03-29T02:01:14.823Z,102107.11
2019-03-29T02:03:44.624Z,102099.56
2019-03-29T02:06:14.707Z,102097.61
2019-03-29T02:08:44.480Z,102093.59
2019-03-29T02:11:14.913Z,102096.06
2019-03-29T02:13:45.057Z,102089.92
2019-03-29T02:16:14.832Z,102091.95
2019-03-29T02:18:44.642Z,102088.60
2019-03-29T02:21:14.710Z,102084.73
2019-03-29T02:23:44.607Z,102092.52
2019-03-29T02:26:14.436Z,102083.69
2019-03-29T02:28:44.975Z,102089.67
2019-03-29T02:31:14.959Z,102094.41
2019-03-29T02:33:44.751Z,102093.46
2019-03-29T02:36:14.810Z,102088.76
2019-03-29T02:38:55.360Z,102086.70
2019-03-29T02:41:16.109Z,102081.64
2019-03-29T02:43:46.163Z,102082.34
2019-03-29T02:46:15.949Z,102075.48
2019-03-29T02:48:45.747Z,102083.12
2019-03-29T02:51:15.510Z,102080.77
2019-03-29T02:53:45.293Z,102074.98
2019-03-29T02:56:15.414Z,102072.00
2019-03-29T02:58:45.581Z,102073.88
2019-03-29T03:01:15.619Z,102076.69
2019-03-29T03:03:45.429Z,102078.39
2019-03-29T03:06:15.474Z,102077.02
2019-03-29T03:08:45.254Z,102074.19
2019-03-29T03:11:15.084Z,102071.53
2019-03-29T03:13:45.149Z,102066.86
2019-03-29T03:16:15.159Z,102073.44
2019-03-29T03:18:44.968Z,102081.97
2019-03-29T03:21:15.035Z,102076.20
2019-03-29T03:23:44.875Z,102076.77
2019-03-29T03:26:14.672Z,102075.52
2019-03-29T03:28:44.730Z,102073.86
2019-03-29T03:31:14.521Z,102072.97
2019-03-29T03:33:44.410Z,102071.91
2019-03-29T03:36:14.449Z,102068.02
2019-03-29T03:38:44.242Z,102068.44
2019-03-29T03:41:14.056Z,102066.27
2019-03-29T03:43:44.120Z,102066.52
2019-03-29T03:46:13.879Z,102061.00
2019-03-29T03:48:43.702Z,102065.47
2019-03-29T03:51:13.845Z,102067.45
2019-03-29T03:53:43.720Z,102068.84
2019-03-29T03:56:13.663Z,102066.77
2019-03-29T03:58:44.052Z,102065.83
2019-03-29T04:01:13.904Z,102068.76
2019-03-29T04:03:43.753Z,102057.13
2019-03-29T04:06:13.958Z,102059.98
2019-03-29T04:08:43.698Z,102062.75
2019-03-29T04:11:13.541Z,102066.88
2019-03-29T04:13:43.678Z,102068.86
2019-03-29T04:16:13.461Z,102070.33
2019-03-29T04:18:44.286Z,102067.97
2019-03-29T04:21:14.101Z,102069.63
2019-03-29T04:23:43.904Z,102070.81
2019-03-29T04:26:13.980Z,102066.48
2019-03-29T04:28:43.752Z,102064.41
2019-03-29T04:31:13.566Z,102063.28
2019-03-29T04:33:43.742Z,102062.38
2019-03-29T04:36:13.582Z,102065.55
2019-03-29T04:38:43.443Z,102062.93
2019-03-29T04:41:13.598Z,102071.67
2019-03-29T04:43:43.393Z,102072.78
2019-03-29T04:46:13.186Z,102068.42
2019-03-29T04:48:43.297Z,102069.12
2019-03-29T04:51:13.171Z,102069.08
2019-03-29T04:53:42.967Z,102066.77
2019-03-29T04:56:13.063Z,102065.56
2019-03-29T04:58:42.925Z,102067.72
2019-03-29T05:01:13.356Z,102064.09
2019-03-29T05:03:43.857Z,102067.70
2019-03-29T05:06:13.689Z,102067.72
2019-03-29T05:08:43.564Z,102071.09
2019-03-29T05:11:13.704Z,102067.73
2019-03-29T05:13:43.544Z,102070.55
2019-03-29T05:16:13.367Z,102068.56
2019-03-29T05:18:43.577Z,102072.08
2019-03-29T05:21:13.476Z,102076.42
2019-03-29T05:23:43.241Z,102074.80
2019-03-29T05:26:13.474Z,102079.25
2019-03-29T05:28:43.328Z,102078.64
2019-03-29T05:31:13.467Z,102078.55
2019-03-29T05:33:43.334Z,102080.50
2019-03-29T05:36:13.132Z,102079.66
2019-03-29T05:38:42.903Z,102081.11
2019-03-29T05:41:12.894Z,102075.83
2019-03-29T05:43:43.215Z,102070.41
2019-03-29T05:46:13.012Z,102071.41
2019-03-29T05:48:44.079Z,102075.39
2019-03-29T05:51:14.128Z,102073.75
2019-03-29T05:53:43.938Z,102075.55
2019-03-29T05:56:13.868Z,102075.52
2019-03-29T05:58:43.966Z,102073.98
2019-03-29T06:01:13.871Z,102078.23
2019-03-29T06:03:43.721Z,102073.60
2019-03-29T06:06:13.878Z,102069.11
2019-03-29T06:08:43.750Z,102073.00
2019-03-29T06:11:13.591Z,102070.97
2019-03-29T06:13:43.826Z,102067.67
2019-03-29T06:16:13.692Z,102069.41
2019-03-29T06:18:43.742Z,102067.78
2019-03-29T06:21:13.842Z,102070.07
2019-03-29T06:23:44.535Z,102076.33
2019-03-29T06:26:14.437Z,102074.84
2019-03-29T06:28:44.644Z,102066.34
2019-03-29T06:31:14.727Z,102062.31
2019-03-29T06:33:44.777Z,102063.82
2019-03-29T06:36:15.803Z,102059.89
2019-03-29T06:38:47.070Z,102058.20
2019-03-29T06:41:17.115Z,102065.95
2019-03-29T06:43:47.455Z,102061.64
2019-03-29T06:46:20.817Z,102071.75
2019-03-29T06:49:18.842Z,102067.06
2019-03-29T06:51:49.207Z,102062.92
2019-03-29T06:54:34.742Z,102061.34
2019-03-29T06:57:09.927Z,102060.02
2019-03-29T06:59:39.971Z,102059.30
2019-03-29T07:02:20.323Z,102057.50
2019-03-29T07:04:52.442Z,102065.09
2019-03-29T07:07:22.393Z,102059.62
2019-03-29T07:09:52.314Z,102049.86
2019-03-29T07:12:22.197Z,102047.41
2019-03-29T07:14:51.993Z,102044.55
2019-03-29T07:17:22.287Z,102049.27
2019-03-29T07:19:52.149Z,102045.98
2019-03-29T07:22:21.979Z,102044.45
2019-03-29T07:24:52.753Z,102044.02
2019-03-29T07:27:22.647Z,102035.84
2019-03-29T07:29:52.771Z,102037.81
2019-03-29T07:32:22.803Z,102035.78
2019-03-29T07:34:52.613Z,102037.96
2019-03-29T07:37:22.794Z,102037.36
2019-03-29T07:39:53.990Z,102036.07
2019-03-29T07:42:23.979Z,102039.48
2019-03-29T07:44:54.076Z,102035.07
2019-03-29T07:47:23.985Z,102033.95
2019-03-29T07:49:53.839Z,102031.11
2019-03-29T07:52:23.950Z,102030.69
2019-03-29T07:54:53.866Z,102024.67
2019-03-29T07:57:23.682Z,102022.46
2019-03-29T07:59:53.798Z,102025.06
2019-03-29T08:02:24.120Z,102025.30
2019-03-29T08:04:54.016Z,102020.23
2019-03-29T08:07:27.418Z,102015.22
2019-03-29T08:09:55.682Z,102022.80
2019-03-29T08:12:25.594Z,102021.70
2019-03-29T08:14:55.748Z,102009.58
2019-03-29T08:17:25.669Z,102013.02
2019-03-29T08:20:13.346Z,102013.22
2019-03-29T08:22:27.057Z,102012.22
2019-03-29T08:24:59.181Z,102013.63
2019-03-29T08:27:29.675Z,102012.83
2019-03-29T08:29:59.580Z,102015.13
2019-03-29T08:32:29.400Z,102013.73
2019-03-29T08:34:59.623Z,102018.28
2019-03-29T08:37:29.541Z,102015.86
2019-03-29T08:39:59.327Z,102015.14
2019-03-29T08:42:30.467Z,102011.52
2019-03-29T08:45:00.410Z,102008.27
2019-03-29T08:47:30.220Z,102004.98
2019-03-29T08:50:03.241Z,102003.88
2019-03-29T08:52:33.045Z,102001.30
2019-03-29T08:55:02.928Z,102003.03
2019-03-29T08:57:32.800Z,101996.64
2019-03-29T09:00:04.207Z,101992.42
2019-03-29T09:02:34.467Z,101997.22
2019-03-29T09:05:04.873Z,101991.42
2019-03-29T09:07:44.563Z,101993.45
2019-03-29T09:10:37.637Z,101985.05
2019-03-29T09:13:09.250Z,101982.90
2019-03-29T09:15:39.342Z,101981.00
2019-03-29T09:19:43.287Z,101978.30
2019-03-29T09:22:15.245Z,101970.38
2019-03-29T09:24:45.156Z,101964.38
2019-03-29T09:27:16.619Z,101965.37
2019-03-29T09:32:51.027Z,101964.36
2019-03-29T09:35:29.276Z,101957.56
2019-03-29T09:38:00.632Z,101952.21
2019-03-29T09:40:31.042Z,101949.47
2019-03-29T09:43:08.568Z,101950.09
2019-03-29T09:45:32.399Z,101944.53
2019-03-29T09:48:03.202Z,101948.27
2019-03-29T09:50:33.291Z,101944.66
2019-03-29T09:53:03.373Z,101947.24
2019-03-29T09:55:33.504Z,101943.23
2019-03-29T09:58:06.354Z,101940.33
2019-03-29T10:00:36.229Z,101938.50
2019-03-29T10:03:06.043Z,101935.89
2019-03-29T10:05:36.028Z,101936.59
2019-03-29T10:08:08.434Z,101933.09
2019-03-29T10:10:39.572Z,101928.39
2019-03-29T10:13:09.684Z,101927.45
2019-03-29T10:15:41.096Z,101927.23
2019-03-29T10:18:10.914Z,101925.06
2019-03-29T10:20:40.829Z,101927.03
2019-03-29T10:23:10.719Z,101913.48
2019-03-29T10:25:40.574Z,101914.38
2019-03-29T10:28:10.386Z,101912.67
2019-03-29T10:30:46.253Z,101914.48
2019-03-29T10:33:14.546Z,101909.69
2019-03-29T10:35:52.262Z,101907.69
2019-03-29T10:38:18.158Z,101902.42
2019-03-29T10:40:48.082Z,101895.19
2019-03-29T10:43:18.004Z,101893.48
2019-03-29T10:45:47.936Z,101886.84
2019-03-29T10:48:21.409Z,101893.83
2019-03-29T10:50:51.495Z,101880.22
2019-03-29T10:53:21.306Z,101879.58
2019-03-29T10:55:54.485Z,101879.03
2019-03-29T10:58:24.438Z,101877.60
2019-03-29T11:00:54.861Z,101878.68
2019-03-29T11:03:28.711Z,101869.24
2019-03-29T11:05:59.367Z,101869.33
2019-03-29T11:08:29.316Z,101862.50
2019-03-29T11:10:59.118Z,101863.16
2019-03-29T11:13:29.550Z,101854.77
2019-03-29T11:15:59.506Z,101850.95
2019-03-29T11:18:29.565Z,101842.66
2019-03-29T11:21:01.382Z,101843.73
2019-03-29T11:23:33.338Z,101845.30
2019-03-29T11:26:05.943Z,101842.71
2019-03-29T11:28:35.746Z,101834.42
2019-03-29T11:31:05.611Z,101835.72
2019-03-29T11:33:36.710Z,101838.40
2019-03-29T11:36:09.378Z,101838.00
2019-03-29T11:38:39.200Z,101838.25
2019-03-29T11:41:09.582Z,101835.39
2019-03-29T11:43:40.032Z,101830.35
2019-03-29T11:46:09.910Z,101823.95
2019-03-29T11:48:39.974Z,101819.31
2019-03-29T11:51:19.257Z,101814.70
2019-03-29T11:53:42.411Z,101817.53
2019-03-29T11:56:13.819Z,101805.00
2019-03-29T11:58:43.725Z,101800.73
2019-03-29T12:01:13.671Z,101801.72
2019-03-29T12:03:43.946Z,101804.27
2019-03-29T12:06:13.730Z,101800.48
2019-03-29T12:08:43.567Z,101798.34
2019-03-29T12:11:13.752Z,101787.89
2019-03-29T12:13:43.854Z,101793.84
2019-03-29T12:16:13.634Z,101793.48
2019-03-29T12:18:43.848Z,101786.86
2019-03-29T12:21:13.619Z,101781.95
2019-03-29T12:23:43.513Z,101784.12
2019-03-29T12:26:13.792Z,101777.01
2019-03-29T12:28:43.937Z,101768.61
2019-03-29T12:31:14.623Z,101771.14
2019-03-29T12:33:44.475Z,101771.28
2019-03-29T12:36:16.204Z,101763.55
2019-03-29T12:38:46.000Z,101764.98
2019-03-29T12:41:16.324Z,101758.02
2019-03-29T12:43:55.487Z,101746.75
2019-03-29T12:46:18.549Z,101743.16
2019-03-29T12:48:50.466Z,101747.02
2019-03-29T12:51:20.411Z,101732.05
2019-03-29T12:53:50.612Z,101735.30
2019-03-29T12:56:21.648Z,101727.78
2019-03-29T12:58:52.383Z,101735.98
2019-03-29T13:01:44.313Z,101723.97
2019-03-29T13:04:15.261Z,101722.23
2019-03-29T13:06:45.594Z,101717.77
2019-03-29T13:09:15.547Z,101714.00
2019-03-29T13:11:45.612Z,101707.84
2019-03-29T13:14:15.421Z,101715.42
2019-03-29T13:16:45.201Z,101701.55
2019-03-29T13:19:15.316Z,101704.01
2019-03-29T13:21:45.209Z,101698.28
2019-03-29T13:24:16.235Z,101694.98
2019-03-29T13:26:47.879Z,101687.97
2019-03-29T13:29:19.050Z,101682.97
2019-03-29T13:31:57.208Z,101683.00
2019-03-29T13:34:27.737Z,101675.85
2019-03-29T13:36:57.798Z,101666.84
2019-03-29T13:39:28.746Z,101662.12
2019-03-29T13:42:00.036Z,101659.34
2019-03-29T13:44:30.132Z,101659.86
2019-03-29T13:47:00.007Z,101649.05
2019-03-29T13:49:31.188Z,101645.70
2019-03-29T13:52:01.062Z,101642.98
2019-03-29T13:54:31.118Z,101645.27
2019-03-29T13:57:01.517Z,101626.53
2019-03-29T13:59:31.948Z,101627.31
2019-03-29T14:02:04.337Z,101621.78
2019-03-29T14:04:34.665Z,101624.99
2019-03-29T14:07:04.463Z,101616.22
2019-03-29T14:09:34.241Z,101617.08
2019-03-29T14:12:06.729Z,101614.75
2019-03-29T14:14:38.517Z,101609.16
2019-03-29T14:17:08.317Z,101601.16
2019-03-29T14:19:40.443Z,101597.42
2019-03-29T14:22:10.291Z,101598.80
2019-03-29T14:24:40.489Z,101598.23
2019-03-29T14:27:10.299Z,101592.44
2019-03-29T14:29:40.299Z,101589.14
2019-03-29T14:32:10.755Z,101585.42
2019-03-29T14:34:40.762Z,101585.03
2019-03-29T14:37:10.538Z,101578.34
2019-03-29T14:39:41.068Z,101574.73
2019-03-29T14:42:12.795Z,101572.67
2019-03-29T14:44:52.179Z,101565.95
2019-03-29T14:47:14.623Z,101568.85
2019-03-29T14:49:44.545Z,101562.11
2019-03-29T14:52:14.679Z,101559.17
2019-03-29T14:54:44.468Z,101555.42
2019-03-29T14:57:14.305Z,101553.17
2019-03-29T14:59:44.153Z,101529.01
2019-03-29T15:02:13.950Z,101529.01
2019-03-29T15:04:44.082Z,101529.50
2019-03-29T15:07:13.978Z,101532.13
2019-03-29T15:09:43.855Z,101521.98
2019-03-29T15:12:14.208Z,101521.98
2019-03-29T15:14:44.019Z,101526.77
2019-03-29T15:17:13.818Z,101523.23
2019-03-29T15:19:44.121Z,101523.73
2019-03-29T15:22:15.799Z,101523.73
2019-03-29T15:24:45.578Z,101526.04
2019-03-29T15:27:15.896Z,101524.50
2019-03-29T15:29:45.731Z,101524.49
2019-03-29T15:32:15.495Z,101517.61
2019-03-29T15:34:46.303Z,101504.83
2019-03-29T15:37:16.116Z,101504.83
2019-03-29T15:39:45.910Z,101521.64
2019-03-29T15:42:16.201Z,101507.08
2019-03-29T15:44:46.884Z,101506.61
2019-03-29T15:47:16.740Z,101504.96
2019-03-29T15:49:55.766Z,101513.38
2019-03-29T15:52:19.729Z,101509.41
2019-03-29T15:54:49.671Z,101507.25
2019-03-29T15:57:20.029Z,101504.37
2019-03-29T15:59:49.827Z,101498.03
2019-03-29T16:02:19.632Z,101496.22
2019-03-29T16:04:49.990Z,101499.47
2019-03-29T16:07:19.848Z,101498.34
2019-03-29T16:09:49.737Z,101497.55
2019-03-29T16:12:20.066Z,101497.39
2019-03-29T16:14:50.074Z,101503.38
2019-03-29T16:17:19.901Z,101497.69
2019-03-29T16:19:50.099Z,101495.72
2019-03-29T16:22:19.943Z,101496.48
2019-03-29T16:24:49.855Z,101489.88
2019-03-29T16:27:20.212Z,101491.47
2019-03-29T16:29:50.027Z,101496.39
2019-03-29T16:32:20.003Z,101490.17
2019-03-29T16:34:50.785Z,101488.59
2019-03-29T16:37:20.906Z,101488.91
2019-03-29T16:39:50.786Z,101490.63
2019-03-29T16:42:21.339Z,101489.66
2019-03-29T16:44:51.472Z,101480.45
2019-03-29T16:47:22.849Z,101485.87
2019-03-29T16:49:54.120Z,101495.11
2019-03-29T16:52:24.059Z,101498.50
2019-03-29T16:54:53.972Z,101498.19
2019-03-29T16:57:24.531Z,101504.67
2019-03-29T16:59:54.570Z,101504.23
2019-03-29T17:02:24.594Z,101514.78
2019-03-29T17:04:54.913Z,101514.21
2019-03-29T17:07:24.850Z,101518.52
2019-03-29T17:09:54.892Z,101516.58
2019-03-29T17:12:25.460Z,101511.72
2019-03-29T17:14:55.498Z,101515.33
2019-03-29T17:17:25.641Z,101516.41
2019-03-29T17:19:56.326Z,101515.59
2019-03-29T17:22:26.509Z,101521.75
2019-03-29T17:24:57.441Z,101519.39
2019-03-29T17:27:27.604Z,101519.69
2019-03-29T17:29:57.671Z,101517.39
2019-03-29T17:32:28.272Z,101517.73
2019-03-29T17:34:58.405Z,101516.05
2019-03-29T17:37:28.581Z,101513.95
2019-03-29T17:39:59.241Z,101513.56
2019-03-29T17:42:29.333Z,101510.41
2019-03-29T17:44:59.773Z,101514.81
2019-03-29T17:47:30.015Z,101509.88
2019-03-29T17:50:01.170Z,101513.52
2019-03-29T17:52:31.365Z,101509.29
2019-03-29T17:55:01.511Z,101510.02
2019-03-29T17:57:31.746Z,101511.31
2019-03-29T18:00:03.703Z,101508.95
2019-03-29T18:02:33.762Z,101511.22
2019-03-29T18:05:04.247Z,101512.56
2019-03-29T18:07:34.911Z,101521.58
2019-03-29T18:10:08.381Z,101518.05
2019-03-29T18:12:38.718Z,101513.30
2019-03-29T18:15:09.405Z,101511.48
2019-03-29T18:17:39.643Z,101513.06
2019-03-29T18:20:10.987Z,101512.11
2019-03-29T18:22:41.361Z,101513.71
2019-03-29T18:25:12.404Z,101520.39
2019-03-29T18:27:43.132Z,101520.39
2019-03-29T18:30:15.064Z,101511.38
2019-03-29T18:32:45.455Z,101523.67
2019-03-29T18:35:16.197Z,101510.67
2019-03-29T18:37:47.309Z,101515.41
2019-03-29T18:40:35.969Z,101513.45
2019-03-29T18:43:07.182Z,101513.65
2019-03-29T18:45:41.348Z,101515.91
2019-03-29T18:48:09.874Z,101517.88
2019-03-29T18:50:40.237Z,101516.42
2019-03-29T18:53:11.810Z,101519.95
2019-03-29T18:55:42.469Z,101521.41
2019-03-29T18:58:15.080Z,101523.70
2019-03-29T19:00:45.466Z,101519.56
2019-03-29T19:03:15.837Z,101519.34
2019-03-29T19:05:46.083Z,101515.78
2019-03-29T19:08:16.874Z,101517.02
2019-03-29T19:10:47.109Z,101518.30
2019-03-29T19:13:17.459Z,101523.23
2019-03-29T19:15:48.309Z,101524.70
2019-03-29T19:18:18.678Z,101515.09
2019-03-29T19:20:49.012Z,101515.18
2019-03-29T19:23:20.913Z,101510.97
2019-03-29T19:25:51.366Z,101515.78
2019-03-29T19:28:21.832Z,101512.06
2019-03-29T19:30:53.341Z,101511.91
2019-03-29T19:33:23.613Z,101510.82
2019-03-29T19:35:54.818Z,101509.67
2019-03-29T19:38:25.422Z,101505.17
2019-03-29T19:40:55.682Z,101508.56
2019-03-29T19:43:25.952Z,101503.69
2019-03-29T19:45:57.794Z,101499.95
2019-03-29T19:48:28.710Z,101506.67
2019-03-29T19:51:00.620Z,101506.23
2019-03-29T19:53:34.331Z,101505.34
2019-03-29T19:56:08.737Z,101508.11
2019-03-29T19:58:39.683Z,101507.66
2019-03-29T20:01:13.415Z,101502.32
2019-03-29T20:03:44.853Z,101497.19
2019-03-29T20:06:16.774Z,101498.80
2019-03-29T20:08:48.430Z,101494.21
2019-03-29T20:11:19.023Z,101494.39
2019-03-29T20:13:50.078Z,101495.09
2019-03-29T20:16:20.482Z,101494.80
2019-03-29T20:18:51.001Z,101494.56
2019-03-29T20:21:21.276Z,101492.09
2019-03-29T20:23:51.760Z,101492.59
2019-03-29T20:26:22.606Z,101491.16
2019-03-29T20:28:53.891Z,101492.05
2019-03-29T20:31:25.916Z,101501.63
2019-03-29T20:33:56.607Z,101501.91
2019-03-29T20:36:27.235Z,101494.17
2019-03-29T20:38:59.108Z,101495.90
2019-03-29T20:41:29.570Z,101496.40
2019-03-29T20:44:00.648Z,101497.41
2019-03-29T20:46:32.533Z,101493.06
2019-03-29T20:49:05.338Z,101490.87
2019-03-29T20:51:36.169Z,101491.73
2019-03-29T20:54:10.120Z,101498.97
2019-03-29T20:56:40.423Z,101493.19
2019-03-29T20:59:15.188Z,101498.40
2019-03-29T21:01:47.179Z,101498.11
2019-03-29T21:04:18.412Z,101493.77
2019-03-29T21:06:54.163Z,101493.01
2019-03-29T21:09:25.704Z,101494.49
2019-03-29T21:11:55.916Z,101488.43
2019-03-29T21:16:56.862Z,101485.45
2019-03-29T21:19:27.244Z,101489.44
2019-03-29T21:21:57.420Z,101485.56
2019-03-29T21:24:28.175Z,101482.33
2019-03-29T21:26:58.514Z,101482.16
2019-03-29T21:29:28.674Z,101482.22
2019-03-29T21:31:59.456Z,101481.72
2019-03-29T21:34:29.644Z,101480.74
2019-03-29T21:36:59.982Z,101476.30
2019-03-29T21:39:31.360Z,101476.19
2019-03-29T21:42:03.494Z,101474.97
2019-03-29T21:44:33.385Z,101479.34
2019-03-29T21:47:03.949Z,101474.23
2019-03-29T21:49:34.047Z,101469.09
2019-03-29T21:52:04.755Z,101467.88
2019-03-29T21:54:35.399Z,101471.37
2019-03-29T21:57:05.344Z,101468.42
2019-03-29T21:59:35.511Z,101461.80
2019-03-29T22:02:07.171Z,101459.64
2019-03-29T22:04:37.053Z,101465.05
2019-03-29T22:07:06.921Z,101453.48
2019-03-29T22:09:37.493Z,101454.24
2019-03-29T22:12:08.367Z,101451.75
2019-03-29T22:14:38.175Z,101455.84
2019-03-29T22:17:09.447Z,101447.13
2019-03-29T22:19:39.286Z,101446.92
2019-03-29T22:22:09.079Z,101444.64
2019-03-29T22:24:39.429Z,101440.58
2019-03-29T22:27:09.248Z,101440.86
2019-03-29T22:29:39.021Z,101435.14
2019-03-29T22:32:10.104Z,101434.76
2019-03-29T22:34:39.908Z,101434.62
2019-03-29T22:37:09.719Z,101426.64
2019-03-29T22:39:39.947Z,101429.41
2019-03-29T22:42:09.836Z,101429.86
2019-03-29T22:44:39.639Z,101428.83
2019-03-29T22:47:09.816Z,101427.59
2019-03-29T22:49:39.585Z,101425.04
2019-03-29T22:52:09.385Z,101426.16
2019-03-29T22:54:39.536Z,101423.19
2019-03-29T22:57:09.353Z,101430.02
2019-03-29T22:59:39.161Z,101434.86
2019-03-29T23:02:09.452Z,101432.72
2019-03-29T23:04:39.482Z,101423.96
2019-03-29T23:07:09.281Z,101424.66
2019-03-29T23:09:39.535Z,101426.29
2019-03-29T23:12:09.321Z,101424.08
2019-03-29T23:14:39.110Z,101419.44
2019-03-29T23:17:09.395Z,101421.62
2019-03-29T23:19:39.210Z,101422.48
2019-03-29T23:22:09.324Z,101421.13
2019-03-29T23:24:39.518Z,101416.19
2019-03-29T23:27:09.304Z,101419.88
2019-03-29T23:29:39.072Z,101417.28
2019-03-29T23:32:08.893Z,101415.23
2019-03-29T23:34:38.688Z,101419.42
2019-03-29T23:37:08.917Z,101420.49
2019-03-29T23:39:38.993Z,101419.29
2019-03-29T23:42:08.821Z,101417.03
2019-03-29T23:44:39.086Z,101426.20
2019-03-29T23:47:08.955Z,101430.47
2019-03-29T23:49:38.748Z,101424.13
2019-03-29T23:52:10.046Z,101422.66
2019-03-29T23:54:39.969Z,101418.91
2019-03-29T23:57:09.782Z,101420.11
2019-03-29T23:59:39.848Z,101410.80
